createdAt,value
2022-10-25T00:01:40.343Z,2.25
2022-10-25T00:04:08.982Z,2.28
2022-10-25T00:06:37.368Z,3.03
2022-10-25T00:09:05.841Z,3.28
2022-10-25T00:11:34.338Z,3.15
2022-10-25T00:14:04.059Z,4.13
2022-10-25T00:16:35.386Z,3.20
2022-10-25T00:19:04.240Z,3.95
2022-10-25T00:21:33.174Z,3.92
2022-10-25T00:24:01.645Z,4.25
2022-10-25T00:26:30.009Z,3.88
2022-10-25T00:28:58.463Z,3.45
2022-10-25T00:31:29.208Z,4.85
2022-10-25T00:33:58.959Z,4.03
2022-10-25T00:36:27.840Z,4.30
2022-10-25T00:38:58.276Z,4.10
2022-10-25T00:41:27.627Z,3.78
2022-10-25T00:43:56.854Z,3.47
2022-10-25T00:46:26.377Z,3.72
2022-10-25T00:48:56.085Z,4.03
2022-10-25T00:51:30.641Z,4.07
2022-10-25T00:53:59.233Z,4.15
2022-10-25T00:56:29.589Z,4.05
2022-10-25T00:59:00.336Z,3.42
2022-10-25T01:01:29.156Z,3.10
2022-10-25T01:03:58.543Z,2.95
2022-10-25T01:06:31.748Z,3.00
2022-10-25T01:09:00.557Z,2.38
2022-10-25T01:11:28.920Z,2.25
2022-10-25T01:13:57.944Z,2.75
2022-10-25T01:16:29.144Z,1.90
2022-10-25T01:19:01.976Z,2.00
2022-10-25T01:21:46.289Z,2.13
2022-10-25T01:24:37.814Z,1.73
2022-10-25T01:27:24.098Z,1.98
2022-10-25T01:30:06.904Z,2.08
2022-10-25T01:32:40.320Z,2.00
2022-10-25T01:35:11.755Z,2.38
2022-10-25T01:37:46.876Z,2.17
2022-10-25T01:40:20.307Z,2.00
2022-10-25T01:42:51.704Z,2.20
2022-10-25T01:45:23.096Z,2.30
2022-10-25T01:47:54.022Z,2.28
2022-10-25T01:50:24.216Z,2.10
2022-10-25T01:55:29.487Z,2.28
2022-10-25T01:58:00.613Z,2.38
2022-10-25T02:00:29.189Z,2.85
2022-10-25T02:03:11.184Z,2.08
2022-10-25T02:05:44.648Z,2.20
2022-10-25T02:08:17.246Z,2.20
2022-10-25T02:10:50.176Z,2.40
2022-10-25T02:13:22.398Z,2.28
2022-10-25T02:15:55.640Z,2.30
2022-10-25T02:18:27.858Z,2.67
2022-10-25T02:20:57.218Z,2.75
2022-10-25T02:23:26.160Z,2.38
2022-10-25T02:25:55.288Z,3.38
2022-10-25T02:28:26.581Z,1.73
2022-10-25T02:30:55.072Z,2.45
2022-10-25T02:33:24.941Z,2.42
2022-10-25T02:36:11.196Z,2.45
2022-10-25T02:38:40.050Z,2.08
2022-10-25T02:41:08.669Z,2.28
2022-10-25T02:43:37.080Z,2.20
2022-10-25T02:46:09.527Z,2.08
2022-10-25T02:48:39.356Z,3.60
2022-10-25T02:51:08.017Z,2.45
2022-10-25T02:53:36.811Z,2.17
2022-10-25T02:56:06.645Z,2.95
2022-10-25T02:58:37.036Z,2.63
2022-10-25T03:01:06.050Z,2.75
2022-10-25T03:03:34.608Z,2.85
2022-10-25T03:06:04.543Z,2.90
2022-10-25T03:08:33.112Z,3.80
2022-10-25T03:11:01.473Z,3.65
2022-10-25T03:13:29.962Z,4.45
2022-10-25T03:15:58.409Z,4.78
2022-10-25T03:18:26.923Z,5.70
2022-10-25T03:20:58.481Z,5.05
2022-10-25T03:23:28.759Z,4.43
2022-10-25T03:25:58.062Z,4.63
2022-10-25T03:28:27.490Z,4.45
2022-10-25T03:30:56.028Z,3.33
2022-10-25T03:33:24.716Z,3.75
2022-10-25T03:35:53.412Z,3.95
2022-10-25T03:38:21.856Z,3.13
2022-10-25T03:40:51.686Z,2.92
2022-10-25T03:43:20.183Z,3.25
2022-10-25T03:45:48.901Z,2.95
2022-10-25T03:48:17.396Z,3.15
2022-10-25T03:50:45.784Z,3.03
2022-10-25T03:53:14.243Z,2.72
2022-10-25T03:55:42.668Z,2.30
2022-10-25T03:58:12.461Z,2.72
2022-10-25T04:00:40.959Z,2.20
2022-10-25T04:03:09.367Z,2.28
2022-10-25T04:05:37.747Z,2.60
2022-10-25T04:08:06.374Z,1.90
2022-10-25T04:10:34.796Z,2.38
2022-10-25T04:13:03.284Z,2.85
2022-10-25T04:15:33.036Z,2.40
2022-10-25T04:18:01.422Z,2.65
2022-10-25T04:20:29.801Z,2.10
2022-10-25T04:22:58.621Z,2.40
2022-10-25T04:25:27.751Z,2.70
2022-10-25T04:27:56.435Z,2.17
2022-10-25T04:30:24.843Z,2.35
2022-10-25T04:32:54.607Z,2.20
2022-10-25T04:35:23.007Z,2.30
2022-10-25T04:37:51.956Z,2.10
2022-10-25T04:40:22.704Z,2.13
2022-10-25T04:42:53.250Z,2.90
2022-10-25T04:45:21.647Z,2.45
2022-10-25T04:47:50.092Z,2.30
2022-10-25T04:50:19.953Z,2.67
2022-10-25T04:52:48.566Z,2.03
2022-10-25T04:55:17.371Z,2.75
2022-10-25T04:57:45.964Z,2.78
2022-10-25T05:00:15.014Z,2.67
2022-10-25T05:02:44.244Z,2.63
2022-10-25T05:05:12.828Z,2.80
2022-10-25T05:07:42.596Z,2.60
2022-10-25T05:10:11.308Z,2.95
2022-10-25T05:12:39.756Z,2.72
2022-10-25T05:15:08.808Z,2.85
2022-10-25T05:17:37.311Z,2.80
2022-10-25T05:20:06.498Z,2.88
2022-10-25T05:22:34.894Z,2.97
2022-10-25T05:25:04.770Z,3.05
2022-10-25T05:27:33.181Z,2.78
2022-10-25T05:30:01.567Z,2.95
2022-10-25T05:32:30.014Z,3.03
2022-10-25T05:34:58.413Z,3.25
2022-10-25T05:37:26.835Z,2.78
2022-10-25T05:39:55.236Z,2.78
2022-10-25T05:42:24.982Z,2.60
2022-10-25T05:44:53.355Z,2.80
2022-10-25T05:47:21.769Z,2.67
2022-10-25T05:49:50.183Z,3.03
2022-10-25T05:52:18.559Z,3.20
2022-10-25T05:54:47.009Z,3.33
2022-10-25T05:57:15.387Z,3.30
2022-10-25T05:59:45.165Z,3.33
2022-10-25T06:02:13.670Z,2.75
2022-10-25T06:04:42.160Z,3.08
2022-10-25T06:07:10.557Z,2.70
2022-10-25T06:09:38.963Z,3.28
2022-10-25T06:12:09.543Z,2.70
2022-10-25T06:14:38.169Z,3.00
2022-10-25T06:17:07.900Z,3.30
2022-10-25T06:19:36.281Z,2.65
2022-10-25T06:22:04.647Z,2.80
2022-10-25T06:24:33.062Z,2.60
2022-10-25T06:27:01.513Z,2.55
2022-10-25T06:29:29.935Z,2.90
2022-10-25T06:31:58.302Z,3.03
2022-10-25T06:34:28.080Z,2.78
2022-10-25T06:36:56.486Z,3.58
2022-10-25T06:39:27.078Z,2.55
2022-10-25T06:41:57.280Z,3.40
2022-10-25T06:44:25.676Z,3.30
2022-10-25T06:49:44.208Z,3.47
2022-10-25T06:52:12.620Z,4.10
2022-10-25T06:54:41.052Z,3.90
2022-10-25T06:57:09.444Z,3.78
2022-10-25T06:59:37.828Z,3.35
2022-10-25T07:02:06.331Z,3.70
2022-10-25T07:04:34.862Z,4.57
2022-10-25T07:07:04.698Z,4.43
2022-10-25T07:09:33.219Z,5.05
2022-10-25T07:12:01.621Z,4.78
2022-10-25T07:14:30.000Z,5.57
2022-10-25T07:16:59.105Z,5.50
2022-10-25T07:19:27.549Z,5.18
2022-10-25T07:21:55.959Z,4.95
2022-10-25T07:24:25.711Z,4.97
2022-10-25T07:26:54.306Z,5.15
2022-10-25T07:29:22.861Z,5.50
2022-10-25T07:31:51.297Z,5.25
2022-10-25T07:34:20.276Z,5.93
2022-10-25T07:36:48.783Z,5.57
2022-10-25T07:39:17.197Z,5.10
2022-10-25T07:41:47.145Z,5.40
2022-10-25T07:44:18.328Z,4.88
2022-10-25T07:46:48.118Z,5.03
2022-10-25T07:49:16.655Z,4.47
2022-10-25T07:51:45.035Z,5.35
2022-10-25T07:54:13.445Z,5.15
2022-10-25T07:56:41.830Z,4.97
2022-10-25T07:59:11.690Z,4.53
2022-10-25T08:01:40.275Z,3.88
2022-10-25T08:04:08.736Z,4.28
2022-10-25T08:06:39.813Z,4.07
2022-10-25T08:09:14.466Z,4.20
2022-10-25T08:11:43.553Z,4.25
2022-10-25T08:14:15.688Z,4.10
2022-10-25T08:16:44.367Z,3.88
2022-10-25T08:19:13.072Z,3.97
2022-10-25T08:21:41.575Z,4.32
2022-10-25T08:24:10.366Z,4.45
2022-10-25T08:26:38.890Z,3.85
2022-10-25T08:29:07.530Z,3.40
2022-10-25T08:31:37.595Z,3.72
2022-10-25T08:34:07.931Z,3.65
2022-10-25T08:36:36.547Z,4.18
2022-10-25T08:39:05.327Z,3.58
2022-10-25T08:41:40.728Z,3.63
2022-10-25T08:44:18.419Z,3.50
2022-10-25T08:46:51.580Z,3.90
2022-10-25T08:49:21.761Z,3.50
2022-10-25T08:51:51.839Z,3.70
2022-10-25T08:54:25.081Z,3.90
2022-10-25T08:57:03.705Z,3.42
2022-10-25T08:59:41.037Z,3.70
2022-10-25T09:02:16.362Z,3.38
2022-10-25T09:04:45.079Z,3.45
2022-10-25T09:07:17.068Z,3.15
2022-10-25T09:09:48.711Z,2.83
2022-10-25T09:12:22.585Z,2.92
2022-10-25T09:14:53.461Z,2.47
2022-10-25T09:17:24.086Z,3.00
2022-10-25T09:20:03.223Z,2.92
2022-10-25T09:22:32.719Z,2.85
2022-10-25T09:25:02.766Z,2.55
2022-10-25T09:27:35.382Z,2.28
2022-10-25T09:30:07.802Z,2.58
2022-10-25T09:32:40.946Z,2.42
2022-10-25T09:35:16.213Z,2.60
2022-10-25T09:37:47.829Z,2.42
2022-10-25T09:40:18.287Z,2.35
2022-10-25T09:42:49.727Z,2.58
2022-10-25T09:45:20.832Z,2.55
2022-10-25T09:47:54.026Z,2.35
2022-10-25T09:50:26.160Z,2.28
2022-10-25T09:55:33.123Z,2.55
2022-10-25T09:58:02.093Z,2.38
2022-10-25T10:00:30.871Z,2.47
2022-10-25T10:03:01.546Z,2.55
2022-10-25T10:05:30.654Z,2.40
2022-10-25T10:07:59.251Z,2.75
2022-10-25T10:10:30.459Z,2.58
2022-10-25T10:13:01.827Z,2.42
2022-10-25T10:15:32.539Z,2.33
2022-10-25T10:18:15.995Z,2.10
2022-10-25T10:20:57.542Z,2.10
2022-10-25T10:23:26.379Z,2.83
2022-10-25T10:25:54.841Z,2.35
2022-10-25T10:28:23.782Z,2.35
2022-10-25T10:30:55.710Z,2.60
2022-10-25T10:33:24.768Z,2.53
2022-10-25T10:35:56.645Z,2.20
2022-10-25T10:38:26.560Z,2.85
2022-10-25T10:40:56.952Z,2.20
2022-10-25T10:43:28.826Z,2.20
2022-10-25T10:46:00.250Z,2.80
2022-10-25T10:48:28.777Z,3.17
2022-10-25T10:50:58.588Z,2.13
2022-10-25T10:53:29.610Z,2.67
2022-10-25T10:55:59.215Z,2.38
2022-10-25T10:58:29.442Z,2.45
2022-10-25T11:00:59.203Z,2.28
2022-10-25T11:03:37.589Z,2.53
2022-10-25T11:06:08.775Z,3.00
2022-10-25T11:08:37.247Z,2.85
2022-10-25T11:11:14.620Z,2.20
2022-10-25T11:13:47.000Z,2.90
2022-10-25T11:16:33.859Z,2.58
2022-10-25T11:19:10.890Z,2.20
2022-10-25T11:21:46.892Z,2.40
2022-10-25T11:24:19.729Z,2.47
2022-10-25T11:26:53.457Z,2.30
2022-10-25T11:29:28.828Z,2.40
2022-10-25T11:31:59.254Z,2.58
2022-10-25T11:34:30.977Z,2.70
2022-10-25T11:37:05.442Z,2.50
2022-10-25T11:39:39.244Z,3.00
2022-10-25T11:42:15.594Z,2.58
2022-10-25T11:44:48.590Z,2.28
2022-10-25T11:47:22.056Z,3.03
2022-10-25T11:49:57.734Z,2.33
2022-10-25T11:52:34.009Z,2.30
2022-10-25T11:55:08.222Z,2.53
2022-10-25T11:57:39.455Z,2.42
2022-10-25T12:00:13.963Z,2.60
2022-10-25T12:02:57.589Z,2.13
2022-10-25T12:05:30.608Z,2.60
2022-10-25T12:08:06.255Z,2.05
2022-10-25T12:10:36.493Z,2.00
2022-10-25T12:13:07.122Z,1.70
2022-10-25T12:15:38.580Z,1.67
2022-10-25T12:18:08.523Z,1.90
2022-10-25T12:20:38.535Z,1.85
2022-10-25T12:23:12.021Z,1.85
2022-10-25T12:25:42.130Z,1.77
2022-10-25T12:28:16.313Z,2.80
2022-10-25T12:30:46.445Z,2.75
2022-10-25T12:33:17.577Z,2.05
2022-10-25T12:35:50.401Z,2.40
2022-10-25T12:38:26.070Z,1.83
2022-10-25T12:40:56.371Z,2.92
2022-10-25T12:43:28.476Z,1.95
2022-10-25T12:46:02.881Z,1.77
2022-10-25T12:48:49.063Z,2.20
2022-10-25T12:51:22.272Z,2.33
2022-10-25T12:54:11.429Z,1.98
2022-10-25T12:56:56.427Z,2.00
2022-10-25T12:59:31.889Z,2.13
2022-10-25T13:02:13.189Z,2.22
2022-10-25T13:04:50.802Z,2.17
2022-10-25T13:07:20.045Z,1.85
2022-10-25T13:09:50.371Z,1.90
2022-10-25T13:12:21.707Z,1.88
2022-10-25T13:14:51.708Z,1.90
2022-10-25T13:17:38.524Z,2.40
2022-10-25T13:20:45.075Z,2.15
2022-10-25T13:23:32.169Z,2.35
2022-10-25T13:26:08.176Z,2.35
2022-10-25T13:28:45.068Z,2.28
2022-10-25T13:31:31.933Z,1.70
2022-10-25T13:34:21.443Z,1.80
2022-10-25T13:36:51.585Z,1.85
2022-10-25T13:39:23.770Z,1.80
2022-10-25T13:41:54.769Z,2.10
2022-10-25T13:44:26.628Z,1.98
2022-10-25T13:46:56.261Z,1.73
2022-10-25T13:49:29.154Z,2.13
2022-10-25T13:51:58.160Z,2.00
2022-10-25T13:54:26.699Z,2.70
2022-10-25T13:56:56.444Z,2.50
2022-10-25T13:59:36.605Z,1.90
2022-10-25T14:02:18.259Z,1.88
2022-10-25T14:04:46.945Z,2.13
2022-10-25T14:07:33.855Z,1.73
2022-10-25T14:10:02.577Z,1.67
2022-10-25T14:12:32.775Z,2.00
2022-10-25T14:15:04.438Z,1.85
2022-10-25T14:17:34.641Z,1.73
2022-10-25T14:20:04.194Z,1.83
2022-10-25T14:22:36.585Z,1.67
2022-10-25T14:25:07.515Z,1.70
2022-10-25T14:27:38.974Z,1.70
2022-10-25T14:30:23.382Z,1.52
2022-10-25T14:32:52.645Z,1.65
2022-10-25T14:35:21.047Z,1.60
2022-10-25T14:37:49.525Z,1.77
2022-10-25T14:40:19.603Z,1.58
2022-10-25T14:42:49.801Z,1.40
2022-10-25T14:45:21.276Z,1.70
2022-10-25T14:47:49.630Z,1.55
2022-10-25T14:50:18.635Z,1.92
2022-10-25T14:52:49.058Z,1.35
2022-10-25T14:55:31.543Z,1.38
2022-10-25T14:58:02.913Z,1.52
2022-10-25T15:00:31.956Z,1.90
2022-10-25T15:03:02.266Z,1.45
2022-10-25T15:05:30.733Z,1.40
2022-10-25T15:07:59.619Z,1.50
2022-10-25T15:10:41.720Z,1.63
2022-10-25T15:13:17.153Z,1.90
2022-10-25T15:15:46.719Z,1.35
2022-10-25T15:18:23.173Z,1.45
2022-10-25T15:20:52.957Z,1.60
2022-10-25T15:23:23.174Z,1.58
2022-10-25T15:25:51.603Z,1.52
2022-10-25T15:28:23.096Z,1.83
2022-10-25T15:31:00.704Z,1.58
2022-10-25T15:33:30.331Z,1.33
2022-10-25T15:35:59.713Z,1.55
2022-10-25T15:38:41.874Z,1.80
2022-10-25T15:41:10.700Z,1.83
2022-10-25T15:43:40.489Z,1.52
2022-10-25T15:46:09.781Z,1.80
2022-10-25T15:48:38.356Z,2.10
2022-10-25T15:51:06.793Z,1.90
2022-10-25T15:53:35.242Z,1.80
2022-10-25T15:56:04.738Z,1.70
2022-10-25T15:58:33.171Z,1.38
2022-10-25T16:01:03.063Z,1.45
2022-10-25T16:03:31.507Z,1.60
2022-10-25T16:06:00.172Z,1.60
2022-10-25T16:08:28.602Z,1.63
2022-10-25T16:10:57.072Z,1.50
2022-10-25T16:13:27.605Z,1.65
2022-10-25T16:15:56.098Z,1.23
2022-10-25T16:20:59.245Z,1.85
2022-10-25T16:23:28.303Z,1.83
2022-10-25T16:25:57.450Z,1.85
2022-10-25T16:30:54.131Z,2.10
2022-10-25T16:33:22.532Z,2.15
2022-10-25T16:35:52.250Z,2.10
2022-10-25T16:38:20.648Z,1.90
2022-10-25T16:40:49.046Z,2.10
2022-10-25T16:43:17.550Z,1.92
2022-10-25T16:45:45.969Z,1.80
2022-10-25T16:48:14.402Z,2.00
2022-10-25T16:50:42.799Z,2.10
2022-10-25T16:53:15.087Z,2.28
2022-10-25T16:55:43.455Z,2.00
2022-10-25T16:58:12.201Z,2.00
2022-10-25T17:00:40.676Z,2.88
2022-10-25T17:03:09.238Z,2.10
2022-10-25T17:05:39.800Z,2.70
2022-10-25T17:08:08.293Z,2.40
2022-10-25T17:13:27.505Z,3.35
2022-10-25T17:15:56.384Z,3.08
2022-10-25T17:18:27.044Z,3.30
2022-10-25T17:20:55.925Z,3.35
2022-10-25T17:23:24.444Z,4.07
2022-10-25T17:25:58.358Z,3.53
2022-10-25T17:28:28.556Z,3.75
2022-10-25T17:30:57.264Z,4.13
2022-10-25T17:33:26.382Z,3.85
2022-10-25T17:35:54.891Z,4.55
2022-10-25T17:38:24.200Z,4.43
2022-10-25T17:40:52.736Z,3.47
2022-10-25T17:43:21.518Z,3.65
2022-10-25T17:45:51.683Z,3.40
2022-10-25T17:48:20.255Z,3.05
2022-10-25T17:50:49.634Z,2.85
2022-10-25T17:53:18.047Z,3.20
2022-10-25T17:55:47.426Z,3.42
2022-10-25T17:58:15.876Z,3.95
2022-10-25T18:00:44.470Z,4.07
2022-10-25T18:03:14.935Z,4.72
2022-10-25T18:05:43.483Z,4.28
2022-10-25T18:08:15.824Z,4.35
2022-10-25T18:10:44.356Z,4.90
2022-10-25T18:13:12.829Z,4.60
2022-10-25T18:15:41.480Z,4.35
2022-10-25T18:18:10.457Z,3.95
2022-10-25T18:20:42.050Z,4.75
2022-10-25T18:23:13.067Z,4.10
2022-10-25T18:25:41.528Z,4.07
2022-10-25T18:28:10.020Z,5.07
2022-10-25T18:30:38.557Z,5.47
2022-10-25T18:33:13.357Z,4.95
2022-10-25T18:35:43.460Z,4.63
2022-10-25T18:38:15.792Z,4.68
2022-10-25T18:40:46.701Z,3.65
2022-10-25T18:43:15.146Z,4.32
2022-10-25T18:45:44.753Z,3.47
2022-10-25T18:48:17.873Z,3.28
2022-10-25T18:50:52.804Z,2.97
2022-10-25T18:53:21.824Z,3.15
2022-10-25T18:55:52.655Z,3.30
2022-10-25T18:58:21.398Z,2.45
2022-10-25T19:00:50.072Z,2.97
2022-10-25T19:03:19.742Z,2.88
2022-10-25T19:05:52.549Z,3.22
2022-10-25T19:08:21.370Z,3.30
2022-10-25T19:10:50.328Z,3.08
2022-10-25T19:13:20.026Z,3.03
2022-10-25T19:15:52.095Z,3.58
2022-10-25T19:18:20.755Z,3.53
2022-10-25T19:20:50.749Z,3.35
2022-10-25T19:23:19.276Z,3.30
2022-10-25T19:25:47.901Z,3.10
2022-10-25T19:28:20.294Z,3.20
2022-10-25T19:30:48.723Z,3.03
2022-10-25T19:33:17.154Z,3.17
2022-10-25T19:35:45.818Z,3.85
2022-10-25T19:38:18.434Z,3.65
2022-10-25T19:40:47.189Z,4.00
2022-10-25T19:43:16.295Z,4.82
2022-10-25T19:45:45.017Z,4.10
2022-10-25T19:48:13.521Z,4.10
2022-10-25T19:50:41.957Z,4.18
2022-10-25T19:53:15.382Z,4.15
2022-10-25T19:55:47.009Z,3.60
2022-10-25T19:58:15.481Z,3.67
2022-10-25T20:00:44.011Z,3.88
2022-10-25T20:03:12.507Z,3.58
2022-10-25T20:05:41.176Z,3.55
2022-10-25T20:08:09.661Z,3.65
2022-10-25T20:10:38.539Z,3.47
2022-10-25T20:13:08.466Z,3.25
2022-10-25T20:15:37.618Z,3.55
2022-10-25T20:18:06.255Z,3.50
2022-10-25T20:20:34.687Z,2.90
2022-10-25T20:23:03.158Z,3.40
2022-10-25T20:25:32.200Z,3.03
2022-10-25T20:28:02.622Z,3.22
2022-10-25T20:30:32.707Z,3.30
2022-10-25T20:33:04.283Z,3.60
2022-10-25T20:35:55.570Z,3.45
2022-10-25T20:38:33.530Z,3.35
2022-10-25T20:41:13.252Z,3.30
2022-10-25T20:46:51.689Z,3.50
2022-10-25T20:49:20.214Z,3.67
2022-10-25T20:51:52.882Z,3.63
2022-10-25T20:54:21.463Z,3.72
2022-10-25T20:57:02.128Z,4.25
2022-10-25T20:59:53.479Z,3.67
2022-10-25T21:02:26.315Z,3.97
2022-10-25T21:04:55.037Z,3.78
2022-10-25T21:07:30.226Z,4.10
2022-10-25T21:10:16.514Z,3.60
2022-10-25T21:12:49.075Z,4.03
2022-10-25T21:15:17.628Z,4.28
2022-10-25T21:17:51.735Z,3.85
2022-10-25T21:20:20.324Z,4.32
2022-10-25T21:22:49.000Z,3.75
2022-10-25T21:25:17.879Z,4.22
2022-10-25T21:27:46.751Z,3.28
2022-10-25T21:30:15.556Z,4.05
2022-10-25T21:32:44.039Z,3.80
2022-10-25T21:35:14.060Z,3.55
2022-10-25T21:37:44.361Z,3.83
2022-10-25T21:40:17.006Z,3.67
2022-10-25T21:42:45.772Z,3.65
2022-10-25T21:45:14.235Z,3.53
2022-10-25T21:47:42.649Z,3.67
2022-10-25T21:50:11.239Z,3.75
2022-10-25T21:52:41.095Z,3.85
2022-10-25T21:55:10.034Z,3.40
2022-10-25T21:57:38.650Z,3.55
2022-10-25T22:00:07.590Z,3.70
2022-10-25T22:02:36.152Z,3.55
2022-10-25T22:05:04.720Z,3.20
2022-10-25T22:07:33.129Z,4.07
2022-10-25T22:10:03.023Z,3.55
2022-10-25T22:12:31.559Z,3.33
2022-10-25T22:15:00.094Z,3.88
2022-10-25T22:21:16.216Z,3.65
2022-10-25T22:23:44.733Z,3.45
2022-10-25T22:26:15.636Z,3.88
2022-10-25T22:28:44.513Z,4.25
2022-10-25T22:31:14.311Z,3.97
2022-10-25T22:33:43.623Z,4.65
2022-10-25T22:36:27.157Z,4.50
2022-10-25T22:38:55.654Z,5.30
2022-10-25T22:41:26.098Z,5.90
2022-10-25T22:43:55.142Z,5.40
2022-10-25T22:46:27.499Z,5.30
2022-10-25T22:48:57.928Z,5.95
2022-10-25T22:51:27.645Z,5.05
2022-10-25T22:53:56.261Z,4.35
2022-10-25T22:56:27.027Z,4.97
2022-10-25T22:58:57.578Z,4.30
2022-10-25T23:01:26.570Z,4.20
2022-10-25T23:04:07.603Z,4.07
2022-10-25T23:09:40.044Z,3.97
2022-10-25T23:12:10.788Z,4.50
2022-10-25T23:14:39.161Z,4.03
2022-10-25T23:17:07.590Z,3.85
2022-10-25T23:19:36.044Z,3.70
2022-10-25T23:22:04.725Z,4.35
2022-10-25T23:24:33.155Z,3.90
2022-10-25T23:27:01.597Z,3.58
2022-10-25T23:29:31.689Z,3.55
2022-10-25T23:32:00.105Z,3.55
2022-10-25T23:34:28.559Z,4.07
2022-10-25T23:36:57.115Z,3.72
2022-10-25T23:39:25.604Z,3.53
2022-10-25T23:41:56.940Z,3.97
2022-10-25T23:44:25.537Z,3.67
2022-10-25T23:46:55.385Z,3.50
2022-10-25T23:49:23.831Z,3.50
2022-10-25T23:51:52.248Z,3.42
2022-10-25T23:54:20.661Z,3.90
2022-10-25T23:56:49.079Z,3.40
2022-10-25T23:59:17.534Z,4.00
